Time,TemperatureF,DewpointF,PressureIn,WindDirection,WindDirectionDegrees,WindSpeedMPH,WindSpeedGustMPH,Humidity,HourlyPrecipIn,Conditions,Clouds,dailyrainin,SolarRadiationWatts/m^2,SoftwareType,DateUTC
2013-10-02 00:07:00,40.5,32.0,31.66,NW,315,1.0,5.0,71,0.00,,,0.00,0,weatherlink.com 1.10,2013-10-02 06:07:00,
2013-10-02 00:22:00,40.0,33.0,31.67,NW,318,3.0,4.0,75,0.00,,,0.00,0,weatherlink.com 1.10,2013-10-02 06:22:00,
2013-10-02 00:37:00,39.7,32.0,31.67,NW,318,0.0,2.0,75,0.00,,,0.00,0,weatherlink.com 1.10,2013-10-02 06:37:00,
2013-10-02 00:52:00,39.7,32.0,31.68,NW,318,0.0,2.0,74,0.00,,,0.00,0,weatherlink.com 1.10,2013-10-02 06:52:00,
2013-10-02 01:07:00,39.9,32.0,31.68,NW,319,0.0,4.0,73,0.00,,,0.00,0,weatherlink.com 1.10,2013-10-02 07:07:00,
2013-10-02 01:22:00,39.3,32.0,31.69,NW,319,0.0,4.0,74,0.00,,,0.00,0,weatherlink.com 1.10,2013-10-02 07:22:00,
2013-10-02 01:37:00,38.9,31.0,31.69,NW,319,0.0,3.0,74,0.00,,,0.00,0,weatherlink.com 1.10,2013-10-02 07:37:00,
2013-10-02 01:53:00,38.4,31.0,31.70,NNW,344,9.0,11.0,76,0.00,,,0.00,0,weatherlink.com 1.10,2013-10-02 07:53:00,
2013-10-02 02:08:00,38.0,30.0,31.70,NW,319,4.0,10.0,74,0.00,,,0.00,0,weatherlink.com 1.10,2013-10-02 08:08:00,
2013-10-02 02:23:00,37.2,30.0,31.70,North,349,2.0,6.0,76,0.00,,,0.00,0,weatherlink.com 1.10,2013-10-02 08:23:00,
2013-10-02 02:38:00,37.1,31.0,31.71,NNE,23,1.0,7.0,77,0.00,,,0.00,0,weatherlink.com 1.10,2013-10-02 08:38:00,
2013-10-02 02:53:00,37.3,30.0,31.71,NNW,332,7.0,10.0,76,0.00,,,0.00,0,weatherlink.com 1.10,2013-10-02 08:53:00,
2013-10-02 03:08:00,37.6,30.0,31.72,NNW,330,2.0,9.0,75,0.00,,,0.00,0,weatherlink.com 1.10,2013-10-02 09:08:00,
2013-10-02 03:23:00,37.3,30.0,31.73,North,5,4.0,7.0,76,0.00,,,0.00,0,weatherlink.com 1.10,2013-10-02 09:23:00,
2013-10-02 03:38:00,36.9,30.0,31.73,NNE,15,3.0,6.0,77,0.00,,,0.00,0,weatherlink.com 1.10,2013-10-02 09:38:00,
2013-10-02 03:53:00,36.6,30.0,31.73,NNE,15,0.0,3.0,77,0.00,,,0.00,0,weatherlink.com 1.10,2013-10-02 09:53:00,
2013-10-02 04:08:00,36.9,30.0,31.73,North,5,0.0,5.0,75,0.00,,,0.00,0,weatherlink.com 1.10,2013-10-02 10:08:00,
2013-10-02 04:23:00,36.6,29.0,31.73,North,5,0.0,1.0,75,0.00,,,0.00,0,weatherlink.com 1.10,2013-10-02 10:23:00,
2013-10-02 04:38:00,36.1,29.0,31.73,NE,42,3.0,7.0,76,0.00,,,0.00,0,weatherlink.com 1.10,2013-10-02 10:38:00,
2013-10-02 04:53:00,35.7,29.0,31.74,NNE,32,2.0,5.0,77,0.00,,,0.00,0,weatherlink.com 1.10,2013-10-02 10:53:00,
2013-10-02 05:08:00,35.5,29.0,31.74,NNE,16,3.0,6.0,76,0.00,,,0.00,0,weatherlink.com 1.10,2013-10-02 11:08:00,
2013-10-02 05:23:00,35.5,28.0,31.75,NNE,17,3.0,5.0,75,0.00,,,0.00,0,weatherlink.com 1.10,2013-10-02 11:23:00,
2013-10-02 05:38:00,35.5,28.0,31.75,NNE,17,1.0,3.0,74,0.00,,,0.00,0,weatherlink.com 1.10,2013-10-02 11:38:00,
2013-10-02 05:53:00,35.9,27.0,31.75,NNE,18,0.0,3.0,71,0.00,,,0.00,0,weatherlink.com 1.10,2013-10-02 11:53:00,
2013-10-02 06:08:00,36.2,27.0,31.75,NNE,18,0.0,2.0,68,0.00,,,0.00,0,weatherlink.com 1.10,2013-10-02 12:08:00,
2013-10-02 06:23:00,35.5,27.0,31.75,NNE,18,1.0,3.0,71,0.00,,,0.00,0,weatherlink.com 1.10,2013-10-02 12:23:00,
2013-10-02 06:38:00,35.0,27.0,31.76,NNE,19,1.0,4.0,73,0.00,,,0.00,0,weatherlink.com 1.10,2013-10-02 12:38:00,
2013-10-02 06:53:00,34.6,27.0,31.75,NNE,20,1.0,4.0,74,0.00,,,0.00,0,weatherlink.com 1.10,2013-10-02 12:53:00,
2013-10-02 07:08:00,35.1,27.0,31.75,NNE,20,1.0,3.0,73,0.00,,,0.00,0,weatherlink.com 1.10,2013-10-02 13:08:00,
2013-10-02 07:23:00,35.0,27.0,31.75,NNE,22,0.0,4.0,73,0.00,,,0.00,0,weatherlink.com 1.10,2013-10-02 13:23:00,
2013-10-02 07:38:00,35.6,26.0,31.76,NNE,23,0.0,1.0,69,0.00,,,0.00,5,weatherlink.com 1.10,2013-10-02 13:38:00,
2013-10-02 07:53:00,34.6,26.0,31.76,NNE,22,0.0,4.0,72,0.00,,,0.00,11,weatherlink.com 1.10,2013-10-02 13:53:00,
2013-10-02 08:08:00,34.2,27.0,31.76,NNE,26,1.0,4.0,74,0.00,,,0.00,16,weatherlink.com 1.10,2013-10-02 14:08:00,
2013-10-02 08:23:00,34.2,27.0,31.77,NNE,26,3.0,4.0,76,0.00,,,0.00,19,weatherlink.com 1.10,2013-10-02 14:23:00,
2013-10-02 08:38:00,34.4,28.0,31.77,NNE,26,0.0,3.0,77,0.00,,,0.00,23,weatherlink.com 1.10,2013-10-02 14:38:00,
2013-10-02 08:53:00,34.2,28.0,31.77,NNE,26,1.0,2.0,77,0.00,,,0.00,25,weatherlink.com 1.10,2013-10-02 14:53:00,
2013-10-02 09:08:00,34.5,27.0,31.77,NNE,26,0.0,1.0,75,0.00,,,0.00,121,weatherlink.com 1.10,2013-10-02 15:08:00,
2013-10-02 09:23:00,36.1,29.0,31.76,NNE,26,0.0,1.0,74,0.00,,,0.00,176,weatherlink.com 1.10,2013-10-02 15:23:00,
2013-10-02 09:38:00,38.1,28.0,31.76,NNE,26,0.0,2.0,67,0.00,,,0.00,229,weatherlink.com 1.10,2013-10-02 15:38:00,
2013-10-02 09:53:00,38.7,28.0,31.76,NNE,27,0.0,2.0,65,0.00,,,0.00,271,weatherlink.com 1.10,2013-10-02 15:53:00,
2013-10-02 10:08:00,38.7,28.0,31.76,NNE,29,0.0,2.0,65,0.00,,,0.00,137,weatherlink.com 1.10,2013-10-02 16:08:00,
2013-10-02 10:24:00,39.2,30.0,31.76,NW,304,3.0,5.0,69,0.00,,,0.00,362,weatherlink.com 1.10,2013-10-02 16:24:00,
2013-10-02 10:39:00,39.7,31.0,31.75,SSW,205,4.0,8.0,71,0.00,,,0.00,401,weatherlink.com 1.10,2013-10-02 16:39:00,
2013-10-02 10:54:00,40.2,32.0,31.75,SW,220,5.0,10.0,73,0.00,,,0.00,438,weatherlink.com 1.10,2013-10-02 16:54:00,
2013-10-02 11:24:00,41.4,32.0,31.73,SW,221,10.0,11.0,68,0.00,,,0.00,533,weatherlink.com 1.10,2013-10-02 17:24:00,
2013-10-02 11:39:00,42.7,31.0,31.72,South,190,11.0,12.0,63,0.00,,,0.00,571,weatherlink.com 1.10,2013-10-02 17:39:00,
2013-10-02 11:54:00,42.8,28.0,31.71,SW,221,7.0,15.0,56,0.00,,,0.00,561,weatherlink.com 1.10,2013-10-02 17:54:00,
2013-10-02 12:09:00,42.9,27.0,31.70,SSW,210,12.0,14.0,54,0.00,,,0.00,592,weatherlink.com 1.10,2013-10-02 18:09:00,
2013-10-02 12:24:00,43.6,27.0,31.69,South,173,2.0,12.0,52,0.00,,,0.00,605,weatherlink.com 1.10,2013-10-02 18:24:00,
2013-10-02 12:39:00,44.9,27.0,31.68,SW,218,5.0,11.0,50,0.00,,,0.00,610,weatherlink.com 1.10,2013-10-02 18:39:00,
2013-10-02 12:54:00,45.1,26.0,31.68,WNW,288,5.0,10.0,47,0.00,,,0.00,626,weatherlink.com 1.10,2013-10-02 18:54:00,
2013-10-02 13:09:00,44.7,26.0,31.66,West,274,1.0,8.0,49,0.00,,,0.00,640,weatherlink.com 1.10,2013-10-02 19:09:00,
2013-10-02 13:24:00,45.6,26.0,31.65,NW,319,4.0,8.0,47,0.00,,,0.00,657,weatherlink.com 1.10,2013-10-02 19:24:00,
2013-10-02 13:39:00,45.1,26.0,31.64,West,276,3.0,8.0,47,0.00,,,0.00,657,weatherlink.com 1.10,2013-10-02 19:39:00,
2013-10-02 13:54:00,46.0,26.0,31.63,NW,307,3.0,8.0,46,0.00,,,0.00,682,weatherlink.com 1.10,2013-10-02 19:54:00,
2013-10-02 14:09:00,46.6,29.0,31.62,WNW,294,13.0,13.0,51,0.00,,,0.00,708,weatherlink.com 1.10,2013-10-02 20:09:00,
2013-10-02 14:24:00,46.9,29.0,31.61,West,275,3.0,12.0,51,0.01,,,0.01,561,weatherlink.com 1.10,2013-10-02 20:24:00,
2013-10-02 14:39:00,47.0,29.0,31.60,NW,319,5.0,13.0,49,0.01,,,0.01,696,weatherlink.com 1.10,2013-10-02 20:39:00,
2013-10-02 14:54:00,47.3,28.0,31.59,NNW,333,7.0,12.0,48,0.01,,,0.01,598,weatherlink.com 1.10,2013-10-02 20:54:00,
2013-10-02 15:09:00,48.1,29.0,31.59,NW,313,8.0,15.0,47,0.01,,,0.01,613,weatherlink.com 1.10,2013-10-02 21:09:00,
2013-10-02 15:24:00,47.6,28.0,31.58,NNW,329,7.0,14.0,47,0.00,,,0.01,483,weatherlink.com 1.10,2013-10-02 21:24:00,
2013-10-02 15:39:00,47.9,27.0,31.57,NNW,327,13.0,16.0,45,0.00,,,0.01,448,weatherlink.com 1.10,2013-10-02 21:39:00,
2013-10-02 15:54:00,47.7,27.0,31.56,NW,326,13.0,15.0,45,0.00,,,0.01,508,weatherlink.com 1.10,2013-10-02 21:54:00,
2013-10-02 16:10:00,47.7,27.0,31.55,North,355,9.0,16.0,45,0.00,,,0.01,417,weatherlink.com 1.10,2013-10-02 22:10:00,
2013-10-02 16:25:00,47.3,27.0,31.55,North,355,8.0,16.0,46,0.00,,,0.01,438,weatherlink.com 1.10,2013-10-02 22:25:00,
2013-10-02 16:40:00,47.6,28.0,31.54,NNW,348,8.0,14.0,46,0.00,,,0.01,218,weatherlink.com 1.10,2013-10-02 22:40:00,
2013-10-02 16:55:00,46.8,28.0,31.54,North,355,8.0,15.0,48,0.00,,,0.01,229,weatherlink.com 1.10,2013-10-02 22:55:00,
2013-10-02 17:10:00,46.9,28.0,31.54,NNE,15,5.0,14.0,48,0.00,,,0.01,190,weatherlink.com 1.10,2013-10-02 23:10:00,
2013-10-02 17:25:00,46.3,28.0,31.53,North,355,8.0,13.0,49,0.00,,,0.01,156,weatherlink.com 1.10,2013-10-02 23:25:00,
2013-10-02 17:40:00,46.0,29.0,31.53,North,5,5.0,13.0,52,0.00,,,0.01,123,weatherlink.com 1.10,2013-10-02 23:40:00,
2013-10-02 17:55:00,45.7,29.0,31.53,North,355,4.0,10.0,52,0.00,,,0.01,86,weatherlink.com 1.10,2013-10-02 23:55:00,
2013-10-02 18:10:00,45.4,29.0,31.53,NNE,24,3.0,8.0,54,0.00,,,0.01,70,weatherlink.com 1.10,2013-10-03 00:10:00,
2013-10-02 18:25:00,45.1,28.0,31.53,NNW,346,7.0,12.0,52,0.00,,,0.01,67,weatherlink.com 1.10,2013-10-03 00:25:00,
2013-10-02 18:40:00,44.7,28.0,31.54,NNE,13,5.0,13.0,53,0.00,,,0.01,44,weatherlink.com 1.10,2013-10-03 00:40:00,
2013-10-02 18:55:00,44.1,28.0,31.53,NNE,13,3.0,13.0,54,0.00,,,0.01,19,weatherlink.com 1.10,2013-10-03 00:55:00,
2013-10-02 19:10:00,43.6,29.0,31.53,North,5,5.0,9.0,56,0.00,,,0.01,0,weatherlink.com 1.10,2013-10-03 01:10:00,
2013-10-02 19:25:00,42.7,29.0,31.54,North,5,8.0,9.0,59,0.00,,,0.01,0,weatherlink.com 1.10,2013-10-03 01:25:00,
2013-10-02 19:40:00,42.2,29.0,31.54,North,360,5.0,11.0,60,0.00,,,0.01,0,weatherlink.com 1.10,2013-10-03 01:40:00,
2013-10-02 19:55:00,41.4,29.0,31.54,NNE,12,5.0,11.0,62,0.00,,,0.01,0,weatherlink.com 1.10,2013-10-03 01:55:00,
2013-10-02 20:10:00,40.9,29.0,31.54,North,11,6.0,10.0,62,0.00,,,0.01,0,weatherlink.com 1.10,2013-10-03 02:10:00,
2013-10-02 20:25:00,40.6,29.0,31.54,NNE,25,3.0,13.0,63,0.00,,,0.01,0,weatherlink.com 1.10,2013-10-03 02:25:00,
2013-10-02 20:40:00,40.5,28.0,31.54,North,5,8.0,12.0,62,0.00,,,0.01,0,weatherlink.com 1.10,2013-10-03 02:40:00,
2013-10-02 20:55:00,40.4,28.0,31.54,NNE,14,12.0,12.0,61,0.00,,,0.01,0,weatherlink.com 1.10,2013-10-03 02:55:00,
2013-10-02 21:10:00,40.0,27.0,31.54,NNE,22,5.0,12.0,61,0.00,,,0.01,0,weatherlink.com 1.10,2013-10-03 03:10:00,
2013-10-02 21:25:00,40.2,27.0,31.54,NNE,28,5.0,12.0,59,0.00,,,0.01,0,weatherlink.com 1.10,2013-10-03 03:25:00,
2013-10-02 21:40:00,40.3,27.0,31.54,North,5,5.0,16.0,60,0.00,,,0.01,0,weatherlink.com 1.10,2013-10-03 03:40:00,
2013-10-02 21:55:00,39.8,27.0,31.55,North,5,9.0,12.0,61,0.00,,,0.01,0,weatherlink.com 1.10,2013-10-03 03:55:00,
2013-10-02 22:10:00,39.5,28.0,31.54,North,11,3.0,11.0,63,0.00,,,0.01,0,weatherlink.com 1.10,2013-10-03 04:10:00,
2013-10-02 22:25:00,39.3,28.0,31.54,North,9,6.0,12.0,65,0.00,,,0.01,0,weatherlink.com 1.10,2013-10-03 04:25:00,
2013-10-02 22:40:00,39.4,29.0,31.54,North,9,9.0,12.0,66,0.00,,,0.01,0,weatherlink.com 1.10,2013-10-03 04:40:00,
2013-10-02 22:55:00,39.3,29.0,31.53,NNE,20,5.0,12.0,66,0.00,,,0.01,0,weatherlink.com 1.10,2013-10-03 04:55:00,
2013-10-02 23:10:00,39.3,29.0,31.53,NNE,14,3.0,9.0,66,0.00,,,0.01,0,weatherlink.com 1.10,2013-10-03 05:10:00,
2013-10-02 23:25:00,39.2,29.0,31.53,NNE,14,5.0,16.0,66,0.00,,,0.01,0,weatherlink.com 1.10,2013-10-03 05:25:00,
2013-10-02 23:40:00,39.1,29.0,31.53,North,5,9.0,12.0,67,0.00,,,0.01,0,weatherlink.com 1.10,2013-10-03 05:40:00,
2013-10-02 23:55:00,39.0,28.0,31.53,North,5,4.0,10.0,66,0.00,,,0.01,0,weatherlink.com 1.10,2013-10-03 05:55:00,